Time;durP1;ratioP1;P1;durP2;ratioP2;P2;SDS_P1;SDS_P2;PMS_P1;PMS_P2;Temp;Humidity;BMP_temperature;BMP_pressure;BME280_temperature;BME280_humidity;BME280_pressure;Samples;Min_cycle;Max_cycle;Signal;HPM_P1;HPM_P2
2022/07/06 00:01:51;;;;;;;1.23;0.52;;;14.80;74.30;;;;;;5067818;28;20025;-61
2022/07/06 00:04:17;;;;;;;1.08;0.50;;;14.70;74.50;;;;;;5065510;28;20027;-61
2022/07/06 00:06:43;;;;;;;1.67;0.40;;;14.70;74.70;;;;;;5067227;28;20052;-62
2022/07/06 00:09:08;;;;;;;1.10;0.50;;;14.70;74.90;;;;;;5066873;28;20102;-61
2022/07/06 00:11:34;;;;;;;1.10;0.50;;;14.60;74.90;;;;;;5068514;28;20190;-61
2022/07/06 00:13:59;;;;;;;1.48;0.75;;;14.60;75.10;;;;;;5068566;28;20522;-61
2022/07/06 00:16:25;;;;;;;2.83;0.70;;;14.60;75.30;;;;;;5066734;28;20603;-61
2022/07/06 00:18:51;;;;;;;1.70;0.50;;;14.60;75.60;;;;;;5077851;28;20533;-61
2022/07/06 00:21:17;;;;;;;1.10;0.50;;;14.50;75.80;;;;;;5074181;28;20023;-61
2022/07/06 00:23:43;;;;;;;1.48;0.40;;;14.50;75.90;;;;;;5050778;28;20122;-61
2022/07/06 00:26:09;;;;;;;0.68;0.43;;;14.50;76.00;;;;;;5066357;28;20020;-61
2022/07/06 00:28:34;;;;;;;1.48;0.50;;;14.40;76.20;;;;;;5066661;28;20035;-61
2022/07/06 00:31:00;;;;;;;1.02;0.57;;;14.40;76.40;;;;;;5064421;28;20020;-61
2022/07/06 00:33:26;;;;;;;1.17;0.43;;;14.40;76.50;;;;;;5068456;28;20024;-61
2022/07/06 00:35:52;;;;;;;3.38;0.52;;;14.40;76.60;;;;;;5082533;28;20028;-61
2022/07/06 00:38:17;;;;;;;1.55;0.60;;;14.30;76.80;;;;;;5067496;28;20029;-61
2022/07/06 00:40:43;;;;;;;1.60;0.40;;;14.30;76.90;;;;;;5065043;28;20535;-61
2022/07/06 00:43:08;;;;;;;2.00;0.50;;;14.30;77.10;;;;;;5065971;28;20028;-61
2022/07/06 00:45:34;;;;;;;1.13;0.40;;;14.30;77.30;;;;;;5067330;28;20078;-61
2022/07/06 00:47:59;;;;;;;1.13;0.50;;;14.20;77.40;;;;;;5067538;28;20032;-62
2022/07/06 00:50:28;;;;;;;2.63;1.17;;;14.20;77.70;;;;;;5063648;28;20036;-61
2022/07/06 00:52:55;;;;;;;1.92;0.43;;;14.20;78.00;;;;;;5072047;28;20035;-61
2022/07/06 00:55:24;;;;;;;0.90;0.55;;;14.10;78.40;;;;;;5071458;28;20024;-61
2022/07/06 00:57:50;;;;;;;1.55;0.50;;;14.00;78.70;;;;;;5071001;28;20035;-61
2022/07/06 01:00:18;;;;;;;2.00;0.68;;;14.00;79.00;;;;;;5068935;28;20048;-61
2022/07/06 01:02:44;;;;;;;1.55;0.50;;;13.90;79.40;;;;;;5071315;28;20028;-61
2022/07/06 01:05:12;;;;;;;1.23;0.80;;;13.90;79.80;;;;;;5068792;28;20578;-61
2022/07/06 01:07:39;;;;;;;2.17;0.90;;;13.80;80.00;;;;;;5067448;28;20032;-61
2022/07/06 01:10:05;;;;;;;1.20;0.77;;;13.80;80.40;;;;;;5071788;28;20020;-61
2022/07/06 01:12:33;;;;;;;0.90;0.52;;;13.70;80.60;;;;;;5071714;28;20031;-62
2022/07/06 01:15:00;;;;;;;1.60;0.60;;;13.70;80.90;;;;;;5068192;28;20021;-61
2022/07/06 01:17:26;;;;;;;1.05;0.50;;;13.70;81.10;;;;;;5069240;28;20092;-61
2022/07/06 01:19:51;;;;;;;1.75;0.93;;;13.60;81.30;;;;;;5069141;28;20032;-61
2022/07/06 01:22:17;;;;;;;1.38;0.63;;;13.60;81.60;;;;;;5070544;28;20028;-61
2022/07/06 01:24:42;;;;;;;0.95;0.40;;;13.50;81.80;;;;;;5068480;28;20017;-61
2022/07/06 01:27:08;;;;;;;1.23;0.70;;;13.50;82.00;;;;;;5069174;28;20411;-61
2022/07/06 01:29:34;;;;;;;1.55;0.50;;;13.50;82.30;;;;;;5069387;28;20515;-61
2022/07/06 01:32:00;;;;;;;1.73;0.60;;;13.40;82.50;;;;;;5068637;28;20028;-61
2022/07/06 01:34:26;;;;;;;2.10;0.98;;;13.40;82.80;;;;;;5070366;28;20024;-61
2022/07/06 01:36:52;;;;;;;1.90;0.90;;;13.30;83.40;;;;;;5068005;28;20044;-61
2022/07/06 01:39:17;;;;;;;2.83;0.85;;;13.10;84.10;;;;;;5069017;28;20035;-61
2022/07/06 01:41:43;;;;;;;2.08;0.80;;;13.00;84.70;;;;;;5070755;28;20029;-61
2022/07/06 01:44:09;;;;;;;1.77;0.70;;;13.00;85.00;;;;;;5070009;28;20039;-61
2022/07/06 01:46:34;;;;;;;1.38;0.55;;;13.00;85.20;;;;;;5069086;28;20020;-61
2022/07/06 01:49:00;;;;;;;0.98;0.50;;;13.00;85.40;;;;;;5069874;28;20025;-61
2022/07/06 01:51:25;;;;;;;1.33;0.60;;;12.90;85.60;;;;;;5070441;28;20020;-61
2022/07/06 01:53:52;;;;;;;1.73;0.65;;;12.90;85.70;;;;;;5073008;28;20043;-61
2022/07/06 01:56:19;;;;;;;1.02;0.60;;;13.00;85.70;;;;;;5051962;28;20053;-61
2022/07/06 01:58:46;;;;;;;1.55;0.70;;;13.00;85.80;;;;;;5067161;28;20035;-61
2022/07/06 02:01:14;;;;;;;1.10;0.55;;;13.00;85.90;;;;;;5069953;28;20044;-61
2022/07/06 02:03:40;;;;;;;0.60;0.50;;;12.90;86.10;;;;;;5067607;28;20096;-61
2022/07/06 02:06:06;;;;;;;1.42;0.60;;;12.80;86.40;;;;;;5069003;28;20031;-61
2022/07/06 02:08:33;;;;;;;1.00;0.60;;;12.80;86.80;;;;;;5068199;28;20032;-61
2022/07/06 02:10:59;;;;;;;2.53;0.60;;;12.80;87.20;;;;;;5069665;28;20047;-61
2022/07/06 02:13:25;;;;;;;2.05;0.60;;;12.70;87.50;;;;;;5069650;28;20530;-61
2022/07/06 02:15:50;;;;;;;1.38;0.60;;;12.70;87.70;;;;;;5069690;28;20038;-61
2022/07/06 02:18:16;;;;;;;1.05;0.55;;;12.80;88.00;;;;;;5067604;28;20024;-61
2022/07/06 02:20:42;;;;;;;1.20;0.50;;;12.70;88.00;;;;;;5069005;28;20490;-61
2022/07/06 02:23:07;;;;;;;1.15;0.50;;;12.70;88.20;;;;;;5067971;28;20024;-61
2022/07/06 02:25:33;;;;;;;1.42;0.60;;;12.70;88.40;;;;;;5068278;28;20789;-61
2022/07/06 02:27:58;;;;;;;1.67;0.70;;;12.70;88.50;;;;;;5068805;28;20029;-60
2022/07/06 02:30:24;;;;;;;1.83;0.52;;;12.70;88.70;;;;;;5064112;28;20029;-61
2022/07/06 02:32:49;;;;;;;1.75;0.70;;;12.70;88.90;;;;;;5069972;28;20036;-61
2022/07/06 02:35:15;;;;;;;2.40;0.50;;;12.60;89.20;;;;;;5067373;28;20073;-61
2022/07/06 02:37:41;;;;;;;1.48;0.60;;;12.60;89.60;;;;;;5068222;28;20028;-61
2022/07/06 02:40:07;;;;;;;0.77;0.60;;;12.60;89.90;;;;;;5067571;28;20028;-61
2022/07/06 02:42:32;;;;;;;1.67;0.60;;;12.60;90.10;;;;;;5068091;28;20036;-61
2022/07/06 02:44:58;;;;;;;1.52;0.65;;;12.50;90.20;;;;;;5079314;28;20484;-61
2022/07/06 02:47:23;;;;;;;1.55;0.60;;;12.50;90.30;;;;;;5074398;28;20380;-61
2022/07/06 02:49:49;;;;;;;1.40;0.80;;;12.40;90.60;;;;;;5069604;28;20032;-61
2022/07/06 02:52:14;;;;;;;1.55;1.20;;;12.40;90.80;;;;;;5068918;28;20033;-61
2022/07/06 02:54:40;;;;;;;4.47;0.73;;;12.40;91.00;;;;;;5069063;28;20503;-61
2022/07/06 02:57:05;;;;;;;1.65;0.80;;;12.40;91.30;;;;;;5069575;28;20044;-61
2022/07/06 02:59:31;;;;;;;2.17;0.90;;;12.30;91.50;;;;;;5069679;28;20799;-61
2022/07/06 03:01:57;;;;;;;1.75;0.80;;;12.30;91.60;;;;;;5066920;28;20032;-61
2022/07/06 03:04:22;;;;;;;3.22;0.95;;;12.30;91.70;;;;;;5067656;28;20035;-61
2022/07/06 03:06:47;;;;;;;3.05;0.80;;;12.30;91.90;;;;;;5067774;28;20029;-61
2022/07/06 03:09:13;;;;;;;0.90;0.60;;;12.30;92.10;;;;;;5067157;28;20029;-61
2022/07/06 03:11:39;;;;;;;1.70;0.90;;;12.30;92.20;;;;;;5069166;28;20121;-61
2022/07/06 03:14:05;;;;;;;3.15;0.90;;;12.30;92.30;;;;;;5067609;28;20431;-61
2022/07/06 03:16:31;;;;;;;1.95;0.90;;;12.30;92.40;;;;;;5066387;28;20033;-61
2022/07/06 03:18:56;;;;;;;1.88;1.08;;;12.20;92.40;;;;;;5067646;28;20376;-61
2022/07/06 03:21:25;;;;;;;1.75;0.80;;;12.20;92.50;;;;;;5067259;28;20488;-61
2022/07/06 03:23:51;;;;;;;2.50;0.93;;;12.20;92.70;;;;;;5066606;28;20505;-61
2022/07/06 03:26:16;;;;;;;2.00;0.90;;;12.20;92.80;;;;;;5069130;28;20035;-61
2022/07/06 03:28:42;;;;;;;1.60;0.80;;;12.20;92.90;;;;;;5065926;28;20029;-62
2022/07/06 03:31:08;;;;;;;2.25;0.82;;;12.20;92.90;;;;;;5067565;28;20021;-61
2022/07/06 03:33:33;;;;;;;3.13;0.90;;;12.30;93.00;;;;;;5066276;28;20037;-61
2022/07/06 03:35:59;;;;;;;1.67;1.15;;;12.30;93.10;;;;;;5064901;28;20020;-61
2022/07/06 03:38:24;;;;;;;1.80;0.85;;;12.30;93.20;;;;;;5066203;28;20425;-61
2022/07/06 03:40:50;;;;;;;2.83;1.75;;;12.30;93.20;;;;;;5067131;28;20420;-61
2022/07/06 03:43:16;;;;;;;2.55;0.95;;;12.30;93.20;;;;;;5065831;28;20488;-61
2022/07/06 03:45:41;;;;;;;1.67;0.98;;;12.30;93.30;;;;;;5067660;28;20021;-61
2022/07/06 03:48:07;;;;;;;1.55;0.80;;;12.30;93.40;;;;;;5065651;28;20115;-61
2022/07/06 03:50:32;;;;;;;1.77;1.00;;;12.40;93.50;;;;;;5067594;28;20028;-62
2022/07/06 03:52:58;;;;;;;2.70;0.95;;;12.40;93.50;;;;;;5066187;28;20028;-62
2022/07/06 03:55:23;;;;;;;3.78;0.90;;;12.40;93.60;;;;;;5067538;28;20020;-62
2022/07/06 03:57:49;;;;;;;3.47;1.10;;;12.40;93.70;;;;;;5065821;28;20033;-61
2022/07/06 04:00:14;;;;;;;2.15;0.98;;;12.50;93.80;;;;;;5068156;28;20128;-61
2022/07/06 04:02:40;;;;;;;2.53;0.90;;;12.50;93.90;;;;;;5065656;28;20021;-61
2022/07/06 04:05:06;;;;;;;3.80;1.00;;;12.50;93.90;;;;;;5067333;28;20031;-61
2022/07/06 04:07:32;;;;;;;2.00;1.13;;;12.60;94.10;;;;;;5065710;28;20012;-61
2022/07/06 04:09:57;;;;;;;1.92;0.85;;;12.60;94.20;;;;;;5064927;28;20032;-61
2022/07/06 04:12:23;;;;;;;2.00;0.80;;;12.60;94.20;;;;;;5065597;28;20024;-61
2022/07/06 04:14:49;;;;;;;1.80;1.20;;;12.60;94.30;;;;;;5067860;28;20036;-61
2022/07/06 04:19:58;;;;;;;2.40;1.30;;;12.70;94.50;;;;;;5066426;28;20534;-62
2022/07/06 04:22:24;;;;;;;2.92;1.00;;;12.80;94.60;;;;;;5067956;28;20036;-61
2022/07/06 04:24:50;;;;;;;2.08;0.90;;;12.80;94.70;;;;;;5067636;28;20089;-61
2022/07/06 04:27:15;;;;;;;1.08;0.82;;;12.80;94.80;;;;;;5074289;28;20082;-61
2022/07/06 04:29:41;;;;;;;1.75;0.88;;;12.80;94.90;;;;;;5072887;28;20024;-61
2022/07/06 04:32:06;;;;;;;2.85;0.73;;;12.90;95.00;;;;;;5073723;28;20093;-62
2022/07/06 04:34:32;;;;;;;2.85;1.10;;;12.90;95.30;;;;;;5073690;28;20659;-61
2022/07/06 04:36:58;;;;;;;1.73;0.90;;;12.90;95.10;;;;;;5071641;28;20028;-61
2022/07/06 04:39:23;;;;;;;1.50;0.90;;;13.00;95.20;;;;;;5072737;28;20415;-61
2022/07/06 04:41:49;;;;;;;1.33;0.80;;;13.00;95.30;;;;;;5073590;28;20032;-61
2022/07/06 04:44:27;;;;;;;1.40;1.00;;;13.10;95.40;;;;;;5073667;28;20024;-61
2022/07/06 04:46:53;;;;;;;2.22;0.98;;;13.10;95.40;;;;;;5087610;28;20032;-64
2022/07/06 04:49:18;;;;;;;1.73;1.08;;;13.20;95.50;;;;;;5074769;28;20066;-61
2022/07/06 04:51:44;;;;;;;2.95;0.80;;;13.20;95.50;;;;;;5074838;28;20028;-61
2022/07/06 04:54:09;;;;;;;2.58;1.02;;;13.30;95.50;;;;;;5074486;28;20028;-61
2022/07/06 04:56:35;;;;;;;2.58;1.10;;;13.30;95.60;;;;;;5074667;28;20511;-61
2022/07/06 04:59:00;;;;;;;1.38;1.05;;;13.40;95.70;;;;;;5078620;28;20111;-62
2022/07/06 05:01:26;;;;;;;2.15;0.80;;;13.50;95.70;;;;;;5071032;28;20021;-61
2022/07/06 05:03:51;;;;;;;1.70;0.90;;;13.50;95.80;;;;;;5058662;28;20087;-61
2022/07/06 05:06:18;;;;;;;1.65;0.75;;;13.60;95.80;;;;;;5063089;28;20016;-61
2022/07/06 05:08:43;;;;;;;2.55;0.80;;;13.70;95.90;;;;;;5078016;28;20031;-61
2022/07/06 05:11:09;;;;;;;1.63;1.05;;;13.70;96.00;;;;;;5077910;28;20017;-61
2022/07/06 05:13:34;;;;;;;4.35;1.23;;;13.80;96.00;;;;;;5078107;28;20400;-61
2022/07/06 05:16:00;;;;;;;2.05;0.90;;;13.90;96.10;;;;;;5077533;28;20065;-61
2022/07/06 05:18:25;;;;;;;4.00;0.80;;;14.00;96.10;;;;;;5077982;28;20033;-62
2022/07/06 05:20:51;;;;;;;2.80;0.90;;;14.00;96.20;;;;;;5077640;28;20025;-61
2022/07/06 05:23:16;;;;;;;2.30;0.77;;;14.10;96.30;;;;;;5077683;28;20029;-61
2022/07/06 05:25:42;;;;;;;2.47;0.70;;;14.20;96.30;;;;;;5072231;28;20024;-61
2022/07/06 05:28:26;;;;;;;2.20;0.80;;;14.20;96.30;;;;;;5058458;28;20033;-61
2022/07/06 05:30:51;;;;;;;1.63;0.70;;;14.30;96.20;;;;;;5066768;28;20071;-61
2022/07/06 05:33:17;;;;;;;2.65;0.90;;;14.30;96.20;;;;;;5077490;28;20113;-61
2022/07/06 05:35:42;;;;;;;2.30;1.02;;;14.30;96.30;;;;;;5078132;28;20484;-61
2022/07/06 05:38:08;;;;;;;2.45;0.95;;;14.40;96.40;;;;;;5073655;28;20086;-61
2022/07/06 05:40:50;;;;;;;3.35;0.85;;;14.40;96.30;;;;;;5074730;28;20536;-61
2022/07/06 05:43:18;;;;;;;1.55;0.70;;;14.50;96.20;;;;;;5074140;28;20032;-61
2022/07/06 05:45:47;;;;;;;5.80;0.90;;;14.50;96.20;;;;;;5073550;28;20069;-61
2022/07/06 05:50:57;;;;;;;2.50;0.70;;;14.60;96.00;;;;;;5074289;28;20077;-61
2022/07/06 05:53:22;;;;;;;2.63;0.73;;;14.60;95.90;;;;;;5071165;28;20032;-61
2022/07/06 05:55:48;;;;;;;2.40;0.90;;;14.60;95.80;;;;;;5066379;28;20541;-61
2022/07/06 05:58:14;;;;;;;3.20;0.90;;;14.70;95.70;;;;;;5070161;28;20025;-61
2022/07/06 06:00:39;;;;;;;1.67;0.68;;;14.80;95.60;;;;;;5072095;28;20558;-61
2022/07/06 06:03:05;;;;;;;1.58;0.80;;;14.80;95.50;;;;;;5065515;28;20020;-61
2022/07/06 06:05:30;;;;;;;2.63;0.70;;;14.90;95.50;;;;;;5067941;28;20357;-61
2022/07/06 06:07:56;;;;;;;1.67;0.68;;;15.00;95.50;;;;;;5070662;28;20025;-61
2022/07/06 06:10:22;;;;;;;1.50;0.55;;;15.20;95.40;;;;;;5084468;28;20326;-61
2022/07/06 06:12:48;;;;;;;1.90;0.63;;;15.30;95.20;;;;;;5073607;28;20059;-61
2022/07/06 06:15:13;;;;;;;2.17;0.50;;;15.40;95.00;;;;;;5069719;28;20063;-62
2022/07/06 06:17:39;;;;;;;1.80;0.60;;;15.50;94.60;;;;;;5072386;28;20024;-61
2022/07/06 06:20:07;;;;;;;2.55;0.60;;;15.60;94.30;;;;;;5072178;28;20086;-61
2022/07/06 06:22:50;;;;;;;1.85;0.50;;;15.70;94.00;;;;;;5069197;28;20106;-61
2022/07/06 06:25:18;;;;;;;1.77;0.50;;;15.80;93.70;;;;;;5058582;28;20035;-61
2022/07/06 06:27:43;;;;;;;2.72;0.70;;;15.90;93.70;;;;;;5071083;28;20027;-62
2022/07/06 06:30:09;;;;;;;1.67;0.70;;;15.90;93.60;;;;;;5069674;28;20028;-61
2022/07/06 06:32:35;;;;;;;1.73;0.77;;;16.00;93.40;;;;;;5071649;28;20017;-61
2022/07/06 06:35:01;;;;;;;1.98;0.57;;;16.10;93.40;;;;;;5070315;28;20078;-61
2022/07/06 06:37:30;;;;;;;1.92;0.60;;;16.20;93.30;;;;;;5072212;28;20039;-61
2022/07/06 06:39:55;;;;;;;1.50;0.50;;;16.20;93.10;;;;;;5059382;28;20040;-61
2022/07/06 06:42:21;;;;;;;1.05;0.50;;;16.20;93.00;;;;;;5056668;28;20029;-62
2022/07/06 06:44:49;;;;;;;0.90;0.40;;;16.20;93.00;;;;;;5058997;28;20408;-61
2022/07/06 06:47:14;;;;;;;2.92;0.50;;;16.20;92.90;;;;;;5058359;28;20053;-61
2022/07/06 06:49:40;;;;;;;2.25;0.60;;;16.20;92.80;;;;;;5061481;28;20052;-62
2022/07/06 06:52:13;;;;;;;0.60;0.40;;;16.30;92.80;;;;;;5061615;28;20040;-62
2022/07/06 06:54:39;;;;;;;1.35;0.43;;;16.40;92.70;;;;;;5063188;28;20048;-61
2022/07/06 06:57:04;;;;;;;1.88;0.40;;;16.30;92.60;;;;;;5064512;28;20052;-61
2022/07/06 07:02:45;;;;;;;1.70;0.30;;;16.40;92.40;;;;;;5049584;28;20379;-61
2022/07/06 07:05:52;;;;;;;2.05;0.30;;;16.40;92.20;;;;;;5071533;28;20025;-61
2022/07/06 07:08:17;;;;;;;1.65;0.30;;;16.50;91.90;;;;;;5048155;28;20108;-62
2022/07/06 07:10:43;;;;;;;1.30;0.32;;;16.50;92.00;;;;;;5069445;28;20425;-62
2022/07/06 07:13:08;;;;;;;2.25;0.40;;;16.50;91.80;;;;;;5063882;28;20029;-61
2022/07/06 07:15:34;;;;;;;2.50;0.52;;;16.60;91.70;;;;;;5071461;28;20039;-61
2022/07/06 07:17:59;;;;;;;3.42;0.30;;;16.70;91.50;;;;;;5066209;28;20033;-61
2022/07/06 07:20:25;;;;;;;1.48;0.30;;;16.70;91.40;;;;;;5066337;28;20044;-63
2022/07/06 07:22:51;;;;;;;1.17;0.38;;;16.80;91.10;;;;;;5072814;28;20022;-61
2022/07/06 07:25:16;;;;;;;3.03;0.43;;;16.90;90.80;;;;;;5070384;28;20100;-62
2022/07/06 07:27:42;;;;;;;1.50;0.30;;;17.00;90.60;;;;;;5084074;28;20054;-62
2022/07/06 07:30:08;;;;;;;0.82;0.43;;;17.00;90.30;;;;;;5070359;28;20028;-61
2022/07/06 07:32:33;;;;;;;1.83;0.40;;;17.10;90.00;;;;;;5066862;28;20542;-62
2022/07/06 07:34:59;;;;;;;1.95;0.40;;;17.10;89.30;;;;;;5068127;28;20068;-61
2022/07/06 07:37:24;;;;;;;1.55;0.30;;;17.20;89.10;;;;;;5062199;28;20025;-62
2022/07/06 07:39:50;;;;;;;3.13;0.30;;;17.20;89.00;;;;;;5062114;28;20035;-62
2022/07/06 07:42:15;;;;;;;2.75;1.15;;;17.30;88.90;;;;;;5070995;28;20055;-61
2022/07/06 07:44:41;;;;;;;1.48;0.35;;;17.40;88.50;;;;;;5065321;28;20060;-61
2022/07/06 07:47:07;;;;;;;0.77;0.30;;;17.50;88.40;;;;;;5078064;28;20430;-62
2022/07/06 07:49:32;;;;;;;1.35;0.30;;;17.60;88.10;;;;;;5061266;28;20509;-61
2022/07/06 07:51:58;;;;;;;1.65;0.30;;;17.70;87.30;;;;;;5058603;28;20024;-61
2022/07/06 07:54:23;;;;;;;1.38;0.40;;;17.80;86.50;;;;;;5058937;28;20091;-61
2022/07/06 07:56:49;;;;;;;2.22;0.60;;;17.90;86.00;;;;;;5052502;28;20044;-61
2022/07/06 07:59:14;;;;;;;2.67;0.40;;;18.00;85.50;;;;;;5052641;28;20099;-61
2022/07/06 08:01:40;;;;;;;2.10;0.40;;;18.10;85.30;;;;;;5066866;28;20020;-61
2022/07/06 08:04:06;;;;;;;1.95;0.30;;;18.10;85.00;;;;;;5060336;28;20021;-61
2022/07/06 08:06:32;;;;;;;0.73;0.20;;;18.20;85.20;;;;;;5052248;28;20479;-61
2022/07/06 08:08:57;;;;;;;1.95;0.25;;;18.20;84.00;;;;;;5056643;28;20064;-61
2022/07/06 08:11:23;;;;;;;0.82;0.38;;;18.20;83.60;;;;;;5067979;28;20034;-61
2022/07/06 08:13:49;;;;;;;0.88;0.30;;;18.20;83.40;;;;;;5065498;28;20122;-61
2022/07/06 08:16:14;;;;;;;0.85;0.30;;;18.30;82.90;;;;;;5062122;28;20036;-61
2022/07/06 08:18:40;;;;;;;1.20;0.20;;;18.40;82.60;;;;;;5069041;28;20056;-61
2022/07/06 08:21:06;;;;;;;2.17;0.20;;;18.50;82.10;;;;;;5065796;28;20025;-61
2022/07/06 08:23:34;;;;;;;1.45;0.38;;;18.50;81.60;;;;;;5057752;28;20036;-61
2022/07/06 08:26:00;;;;;;;0.60;0.20;;;18.50;79.90;;;;;;5054104;28;20028;-62
2022/07/06 08:28:26;;;;;;;1.27;0.20;;;18.50;79.80;;;;;;5064756;28;20047;-61
2022/07/06 08:30:54;;;;;;;2.05;0.20;;;18.50;80.10;;;;;;5067179;28;20476;-62
2022/07/06 08:33:19;;;;;;;1.13;0.20;;;18.60;80.10;;;;;;5065888;28;20454;-61
2022/07/06 08:35:45;;;;;;;0.45;0.20;;;18.70;79.50;;;;;;5067192;28;20586;-62
2022/07/06 08:38:10;;;;;;;1.08;0.30;;;18.80;78.50;;;;;;5066043;28;20032;-62
2022/07/06 08:40:39;;;;;;;0.32;0.10;;;18.90;78.50;;;;;;5056248;28;20362;-61
2022/07/06 08:43:05;;;;;;;1.20;0.20;;;18.90;77.00;;;;;;5061926;28;20021;-61
2022/07/06 08:45:34;;;;;;;0.52;0.10;;;19.00;76.50;;;;;;5057947;28;20033;-61
2022/07/06 08:48:05;;;;;;;0.52;0.20;;;19.10;76.10;;;;;;5067186;28;20032;-61
2022/07/06 08:50:50;;;;;;;1.65;0.30;;;19.20;75.00;;;;;;5064598;28;20036;-61
2022/07/06 08:53:17;;;;;;;0.60;0.20;;;19.30;74.70;;;;;;5065710;28;20075;-62
2022/07/06 08:55:42;;;;;;;1.75;0.20;;;19.40;74.10;;;;;;5065009;28;20476;-62
2022/07/06 08:58:09;;;;;;;0.60;0.20;;;19.40;74.60;;;;;;5067945;28;20137;-62
2022/07/06 09:00:35;;;;;;;2.15;0.20;;;19.50;74.00;;;;;;5078709;28;20055;-62
2022/07/06 09:03:01;;;;;;;0.32;0.20;;;19.60;73.20;;;;;;5063206;28;20469;-61
2022/07/06 09:05:28;;;;;;;1.00;0.20;;;19.70;72.90;;;;;;5070506;28;20021;-62
2022/07/06 09:07:55;;;;;;;0.82;0.20;;;19.70;72.60;;;;;;5064199;28;20021;-62
2022/07/06 09:13:30;;;;;;;0.65;0.20;;;19.80;72.20;;;;;;5060450;28;20117;-61
2022/07/06 09:15:56;;;;;;;1.25;0.30;;;20.00;71.70;;;;;;5069213;28;20420;-62
2022/07/06 09:18:24;;;;;;;0.47;0.10;;;20.10;70.90;;;;;;5067625;28;20032;-61
2022/07/06 09:20:49;;;;;;;0.63;0.25;;;20.30;70.40;;;;;;5062770;28;20033;-62
2022/07/06 09:23:17;;;;;;;0.55;0.10;;;20.40;68.90;;;;;;5080575;28;20017;-62
2022/07/06 09:25:46;;;;;;;0.77;0.20;;;20.40;69.10;;;;;;5070190;28;20067;-62
2022/07/06 09:28:12;;;;;;;1.60;0.20;;;20.40;68.60;;;;;;5069249;28;20024;-62
2022/07/06 09:30:40;;;;;;;1.20;0.13;;;20.50;68.50;;;;;;5070129;28;20381;-62
2022/07/06 09:33:08;;;;;;;2.03;0.20;;;20.70;68.40;;;;;;5085881;28;20116;-62
2022/07/06 09:35:40;;;;;;;2.05;0.20;;;20.80;68.30;;;;;;5067258;28;20437;-62
2022/07/06 09:38:13;;;;;;;0.70;0.13;;;21.00;67.30;;;;;;5073007;28;20173;-62
2022/07/06 09:40:44;;;;;;;1.70;0.30;;;21.10;65.90;;;;;;5068932;28;20017;-62
2022/07/06 09:43:11;;;;;;;1.20;0.22;;;21.30;65.60;;;;;;5064092;28;20017;-62
2022/07/06 09:45:38;;;;;;;1.85;0.20;;;21.40;65.40;;;;;;5074077;28;20030;-62
2022/07/06 09:48:09;;;;;;;1.00;0.30;;;21.50;64.60;;;;;;5077632;28;20049;-62
2022/07/06 09:50:58;;;;;;;1.63;0.30;;;21.50;63.40;;;;;;5122681;27;20111;-62
2022/07/06 09:53:26;;;;;;;1.23;0.20;;;21.60;64.40;;;;;;5078908;28;20041;-62
2022/07/06 09:55:53;;;;;;;0.45;0.20;;;21.70;63.70;;;;;;5062284;28;20428;-62
2022/07/06 09:58:20;;;;;;;0.75;0.15;;;21.80;63.30;;;;;;5077229;28;20499;-62
2022/07/06 10:00:47;;;;;;;0.80;0.20;;;22.00;63.10;;;;;;5083277;28;20050;-62
2022/07/06 10:03:15;;;;;;;1.20;0.22;;;22.10;61.80;;;;;;5068239;28;20464;-62
2022/07/06 10:05:42;;;;;;;0.50;0.10;;;22.20;61.50;;;;;;5077414;28;20110;-62
2022/07/06 10:08:09;;;;;;;1.10;0.20;;;22.30;61.50;;;;;;5071960;28;20025;-62
2022/07/06 10:10:37;;;;;;;0.80;0.15;;;22.30;61.40;;;;;;5063034;28;20432;-62
2022/07/06 10:13:05;;;;;;;0.52;0.20;;;22.30;61.30;;;;;;5064696;28;20471;-62
2022/07/06 10:15:32;;;;;;;1.07;0.20;;;22.40;61.10;;;;;;5093323;28;20028;-62
2022/07/06 10:17:59;;;;;;;0.70;0.20;;;22.50;60.30;;;;;;5074409;28;20304;-62
2022/07/06 10:20:29;;;;;;;0.32;0.13;;;22.60;59.60;;;;;;5066738;28;20610;-62
2022/07/06 10:22:57;;;;;;;0.98;0.20;;;22.70;59.50;;;;;;5070161;28;20060;-62
2022/07/06 10:25:24;;;;;;;1.08;0.20;;;22.90;59.30;;;;;;5069528;28;20104;-62
2022/07/06 10:27:51;;;;;;;1.23;0.30;;;23.00;58.70;;;;;;5071267;28;20028;-62
2022/07/06 10:33:33;;;;;;;1.60;0.20;;;23.10;58.60;;;;;;5073702;28;20029;-62
2022/07/06 10:35:59;;;;;;;1.17;0.50;;;23.10;58.40;;;;;;5065701;28;20158;-62
2022/07/06 10:38:32;;;;;;;0.80;0.20;;;23.10;58.30;;;;;;5064261;28;20497;-62
2022/07/06 10:41:07;;;;;;;0.50;0.20;;;23.20;57.90;;;;;;5097482;27;20387;-62
2022/07/06 10:43:33;;;;;;;4.43;0.30;;;23.40;57.50;;;;;;5064569;28;20048;-62
2022/07/06 10:46:04;;;;;;;0.73;0.22;;;23.50;56.50;;;;;;5068035;28;20031;-62
2022/07/06 10:48:41;;;;;;;0.98;0.30;;;23.50;56.00;;;;;;5066837;28;20029;-62
2022/07/06 10:51:08;;;;;;;1.25;0.20;;;23.60;55.70;;;;;;5071681;28;20032;-62
2022/07/06 10:53:35;;;;;;;1.83;0.35;;;23.50;55.60;;;;;;5093320;27;20029;-62
2022/07/06 10:56:09;;;;;;;0.95;0.25;;;23.50;55.30;;;;;;5061617;28;20021;-62
2022/07/06 10:59:00;;;;;;;0.65;0.13;;;23.60;55.30;;;;;;5064230;28;20064;-62
2022/07/06 11:01:28;;;;;;;2.38;0.30;;;23.70;55.60;;;;;;5043753;28;20052;-62
2022/07/06 11:03:57;;;;;;;0.50;0.20;;;23.80;54.90;;;;;;5066397;28;20028;-62
2022/07/06 11:06:24;;;;;;;0.50;0.40;;;23.80;54.80;;;;;;5075648;28;20043;-62
2022/07/06 11:08:57;;;;;;;0.55;0.20;;;23.70;55.10;;;;;;5062259;28;20035;-62
2022/07/06 11:11:32;;;;;;;1.25;0.20;;;23.90;55.00;;;;;;5062882;28;20025;-62
2022/07/06 11:14:02;;;;;;;0.90;0.20;;;24.00;55.10;;;;;;5051940;28;20111;-62
2022/07/06 11:16:33;;;;;;;0.57;0.20;;;24.00;54.90;;;;;;5059251;28;20580;-63
2022/07/06 11:19:23;;;;;;;0.50;0.20;;;24.10;55.00;;;;;;5062272;28;20099;-63
2022/07/06 11:21:58;;;;;;;1.30;0.43;;;24.00;53.40;;;;;;5065957;28;20031;-63
2022/07/06 11:24:29;;;;;;;1.45;0.22;;;24.00;53.80;;;;;;5067891;28;20037;-62
2022/07/06 11:26:56;;;;;;;1.80;0.20;;;24.20;53.70;;;;;;5070423;28;20020;-63
2022/07/06 11:29:38;;;;;;;0.77;0.13;;;24.40;53.40;;;;;;5065755;28;20024;-62
2022/07/06 11:32:09;;;;;;;1.85;0.30;;;24.50;53.20;;;;;;5067690;28;20024;-62
2022/07/06 11:34:36;;;;;;;1.33;0.30;;;24.50;52.90;;;;;;5062727;28;20025;-62
2022/07/06 11:37:07;;;;;;;1.33;0.28;;;24.60;52.70;;;;;;5067653;28;20021;-62
2022/07/06 11:39:36;;;;;;;0.57;0.20;;;24.70;52.50;;;;;;5076810;28;20107;-63
2022/07/06 11:42:03;;;;;;;0.80;0.20;;;24.80;52.60;;;;;;5061103;28;20021;-62
2022/07/06 11:44:30;;;;;;;0.40;0.20;;;24.80;52.60;;;;;;5062906;28;20039;-63
2022/07/06 11:47:01;;;;;;;1.13;0.20;;;24.80;52.60;;;;;;5084080;28;20020;-62
2022/07/06 11:49:27;;;;;;;0.35;0.20;;;24.90;52.20;;;;;;5074732;28;20035;-62
2022/07/06 11:52:26;;;;;;;;;;;;;;;;;;;;;
2022/07/06 11:54:57;;;;;;;;;;;24.90;52.00;;;;;;5056291;28;20038;-62
2022/07/06 11:57:22;;;;;;;0.60;0.20;;;24.80;52.30;;;;;;5067453;28;19947;-62
2022/07/06 11:59:51;;;;;;;0.50;0.17;;;24.70;51.60;;;;;;5075530;28;20563;-63
2022/07/06 12:02:17;;;;;;;0.68;0.20;;;24.60;50.90;;;;;;5066213;28;20035;-62
2022/07/06 12:04:44;;;;;;;0.85;0.20;;;24.40;50.60;;;;;;5066528;28;20024;-62
2022/07/06 12:07:17;;;;;;;0.90;0.28;;;24.30;51.20;;;;;;5068390;28;20043;-62
2022/07/06 12:10:09;;;;;;;0.80;0.20;;;24.40;51.20;;;;;;5058527;28;20029;-62
2022/07/06 12:12:35;;;;;;;1.77;0.25;;;24.30;51.30;;;;;;5069538;28;20055;-63
2022/07/06 12:15:00;;;;;;;5.07;0.30;;;24.20;51.70;;;;;;5078917;28;20021;-62
2022/07/06 12:17:26;;;;;;;1.33;0.40;;;24.30;51.20;;;;;;5063444;28;20033;-62
2022/07/06 12:19:55;;;;;;;0.60;0.10;;;24.10;51.00;;;;;;5053094;28;20444;-62
2022/07/06 12:22:26;;;;;;;1.23;0.25;;;24.20;51.70;;;;;;5090779;28;20049;-62
2022/07/06 12:25:28;;;;;;;1.55;0.25;;;24.40;51.70;;;;;;5084169;28;20025;-63
2022/07/06 12:27:54;;;;;;;1.30;0.20;;;24.80;51.60;;;;;;5052951;28;20095;-62
2022/07/06 12:30:19;;;;;;;0.98;0.20;;;25.10;51.20;;;;;;5077793;28;20020;-62
2022/07/06 12:32:45;;;;;;;1.00;0.25;;;25.10;50.20;;;;;;5082908;28;20085;-62
2022/07/06 12:35:11;;;;;;;0.45;0.20;;;25.10;50.50;;;;;;5074622;28;20408;-62
2022/07/06 12:37:37;;;;;;;0.73;0.17;;;25.40;50.90;;;;;;5081343;28;20032;-62
2022/07/06 12:40:12;;;;;;;0.57;0.20;;;25.30;50.10;;;;;;5081836;28;20362;-62
2022/07/06 12:42:47;;;;;;;1.20;0.20;;;25.10;49.60;;;;;;5079053;28;20021;-62
2022/07/06 12:45:12;;;;;;;1.55;0.25;;;25.20;50.10;;;;;;5065501;28;20472;-63
2022/07/06 12:48:23;;;;;;;;;;;;;;;;;;;;;
2022/07/06 12:50:49;;;;;;;2.22;0.20;;;25.60;49.60;;;;;;5073069;28;20035;-62
2022/07/06 12:53:26;;;;;;;0.82;0.20;;;25.60;49.80;;;;;;5080448;28;20103;-63
2022/07/06 12:56:12;;;;;;;1.15;0.30;;;25.80;49.50;;;;;;5068564;28;20547;-62
2022/07/06 12:58:37;;;;;;;0.90;0.20;;;26.00;49.20;;;;;;5082198;28;20392;-63
2022/07/06 13:01:03;;;;;;;0.60;0.20;;;26.10;48.50;;;;;;5078579;28;20050;-62
2022/07/06 13:03:39;;;;;;;1.25;0.50;;;26.30;48.50;;;;;;5076895;28;20032;-62
2022/07/06 13:06:05;;;;;;;0.60;0.20;;;26.40;47.90;;;;;;5066140;28;20021;-62
2022/07/06 13:08:30;;;;;;;1.50;0.30;;;26.50;47.70;;;;;;5064880;28;20103;-62